This is the latest recevied weather packets stored in our database for station/object KB3FKJ. If no packets are shown the sender has not sent any weather packets the latest 1 day(s).
| Time | Temp. | Humidity | Pressure | Rain* | Wind** | Luminosity | Snow |
|---|---|---|---|---|---|---|---|
| 1778023509 | 18.89° C | 70% | 1006.9 hPa | 0 mm | 0 m/s | 19 W/m² | - |
| 1778023206 | 19.44° C | 70% | 1006.9 hPa | 0 mm | 0 m/s | 24 W/m² | - |
| 1778022903 | 19.44° C | 70% | 1006.9 hPa | 0 mm | 0 m/s | 26 W/m² | - |
| 1778022602 | 20° C | 68% | 1007.1 hPa | 0 mm | 0 m/s | 25 W/m² | - |
| 1778022299 | 20.56° C | 65% | 1006.8 hPa | 0 mm | 0 m/s | 27 W/m² | - |
| 1778021995 | 20.56° C | 62% | 1006.8 hPa | 0 mm | 0.45 m/s, 125° | 35 W/m² | - |
| 1778021692 | 20.56° C | 61% | 1006.8 hPa | 0 mm | 0.89 m/s, 182° | 41 W/m² | - |
| 1778021388 | 20.56° C | 63% | 1007.1 hPa | 0 mm | 0.89 m/s, 184° | 44 W/m² | - |
| 1778021085 | 20.56° C | 64% | 1006.8 hPa | 0 mm | 0.45 m/s, 175° | 49 W/m² | - |
| 1778020782 | 20.56° C | 65% | 1007 hPa | 0 mm | 0.89 m/s, 200° | 52 W/m² | - |
| 1778020479 | 20° C | 68% | 1007.1 hPa | 0 mm | 0.45 m/s, 212° | 54 W/m² | - |
| 1778020175 | 20.56° C | 66% | 1007.1 hPa | 0 mm | 0.45 m/s, 190° | 45 W/m² | - |
| 1778019872 | 20.56° C | 68% | 1007.1 hPa | 0 mm | 0.45 m/s, 185° | 46 W/m² | - |
| 1778019568 | 20° C | 73% | 1007.1 hPa | 0 mm | 0.45 m/s, 162° | 31 W/m² | - |
| 1778019265 | 20° C | 73% | 1007.3 hPa | 0 mm | 0 m/s | 30 W/m² | - |
| 1778018962 | 20° C | 71% | 1007 hPa | 0 mm | 0.89 m/s, 139° | 38 W/m² | - |
| 1778018659 | 20.56° C | 71% | 1007.1 hPa | 0 mm | 0.89 m/s, 177° | 62 W/m² | - |
| 1778018357 | 20.56° C | 74% | 1006.9 hPa | 0 mm | 0.45 m/s, 146° | 118 W/m² | - |
| 1778018055 | 19.44° C | 79% | 1007.1 hPa | 0 mm | 0 m/s | 101 W/m² | - |
| 1778017753 | 19.44° C | 81% | 1007.2 hPa | 0 mm | 0 m/s | 95 W/m² | - |
| 1778017450 | 18.89° C | 86% | 1007.1 hPa | 0 mm | 0 m/s | 115 W/m² | - |
| 1778017147 | 18.89° C | 85% | 1007.3 hPa | 0 mm | 0 m/s | 82 W/m² | - |
| 1778016845 | 18.33° C | 83% | 1007.1 hPa | 0 mm | 0 m/s | 82 W/m² | - |
| 1778016541 | 17.78° C | 85% | 1007.3 hPa | 0 mm | 0 m/s | 72 W/m² | - |
| 1778016238 | 17.78° C | 87% | 1007.4 hPa | 0 mm | 0.45 m/s, 149° | 57 W/m² | - |
* Rain latest hour (hover to see other rain measurements)
** Current wind speed in m/s (hover to see current wind gust speed)